Mildura, Australia
Current Conditions -  °F | °C
As of 4:00 AM on Saturday 25 Oct 2014 (Local Time) from YMIA Reporting Station
Clear Clear  
Wind Chill: 70°   Ceiling: Unl
Heat Index: 70°   Visibility: 6mi
Dew Point: 39°   Wind: 8mph
Humidity: 33%   Direction: 160°SSE
Pressure: 29.88"   Gusts: NA
Location:  34.18°S, 142.17°E
Report Text: YMIA 241700Z AUTO 16007KT 9999 // NCD 21/04 Q1012
Loading
Personal Weather Stations






























Interactive Weather Map New forecast layout! Learn more

10-Day Weather Forecast

Advertisements
Track Severe Weather on mobile